sensor_id;sensor_type;location;lat;lon;timestamp;P1;durP1;ratioP1;P2;durP2;ratioP2
38252;SDS011;24785;52.372;20.672;2023-09-19T00:09:26;16.48;;;9.43;;
38252;SDS011;24785;52.372;20.672;2023-09-19T00:19:27;19.27;;;10.37;;
38252;SDS011;24785;52.372;20.672;2023-09-19T00:29:30;16.33;;;9.43;;
38252;SDS011;24785;52.372;20.672;2023-09-19T00:39:32;16.50;;;10.48;;
38252;SDS011;24785;52.372;20.672;2023-09-19T00:49:33;20.63;;;9.95;;
38252;SDS011;24785;52.372;20.672;2023-09-19T00:59:34;18.92;;;9.45;;
38252;SDS011;24785;52.372;20.672;2023-09-19T01:09:35;17.87;;;10.13;;
38252;SDS011;24785;52.372;20.672;2023-09-19T01:30:11;21.37;;;10.73;;
38252;SDS011;24785;52.372;20.672;2023-09-19T01:40:16;17.67;;;10.52;;
38252;SDS011;24785;52.372;20.672;2023-09-19T02:00:41;16.33;;;9.65;;
38252;SDS011;24785;52.372;20.672;2023-09-19T02:10:43;21.13;;;11.27;;
38252;SDS011;24785;52.372;20.672;2023-09-19T02:20:49;20.92;;;10.40;;
38252;SDS011;24785;52.372;20.672;2023-09-19T02:30:51;18.58;;;10.88;;
38252;SDS011;24785;52.372;20.672;2023-09-19T02:40:52;22.02;;;13.32;;
38252;SDS011;24785;52.372;20.672;2023-09-19T02:50:53;30.92;;;16.00;;
38252;SDS011;24785;52.372;20.672;2023-09-19T03:00:54;19.77;;;12.05;;
38252;SDS011;24785;52.372;20.672;2023-09-19T03:10:55;23.92;;;11.55;;
38252;SDS011;24785;52.372;20.672;2023-09-19T03:20:56;19.23;;;11.88;;
38252;SDS011;24785;52.372;20.672;2023-09-19T03:31:06;16.70;;;10.07;;
38252;SDS011;24785;52.372;20.672;2023-09-19T03:41:07;20.17;;;10.52;;
38252;SDS011;24785;52.372;20.672;2023-09-19T03:51:08;20.30;;;11.07;;
38252;SDS011;24785;52.372;20.672;2023-09-19T04:01:09;19.60;;;11.52;;
38252;SDS011;24785;52.372;20.672;2023-09-19T04:11:10;26.27;;;11.57;;
38252;SDS011;24785;52.372;20.672;2023-09-19T04:21:11;22.58;;;11.82;;
38252;SDS011;24785;52.372;20.672;2023-09-19T04:31:12;19.20;;;11.70;;
38252;SDS011;24785;52.372;20.672;2023-09-19T04:41:14;18.33;;;10.88;;
38252;SDS011;24785;52.372;20.672;2023-09-19T04:51:15;21.00;;;11.15;;
38252;SDS011;24785;52.372;20.672;2023-09-19T05:01:16;19.08;;;10.43;;
38252;SDS011;24785;52.372;20.672;2023-09-19T05:11:18;21.73;;;11.00;;
38252;SDS011;24785;52.372;20.672;2023-09-19T05:21:20;20.07;;;11.13;;
38252;SDS011;24785;52.372;20.672;2023-09-19T05:31:20;16.10;;;9.85;;
38252;SDS011;24785;52.372;20.672;2023-09-19T05:41:22;17.92;;;9.60;;
38252;SDS011;24785;52.372;20.672;2023-09-19T05:51:23;16.13;;;9.68;;
38252;SDS011;24785;52.372;20.672;2023-09-19T06:01:23;22.25;;;9.57;;
38252;SDS011;24785;52.372;20.672;2023-09-19T06:11:24;14.95;;;9.65;;
38252;SDS011;24785;52.372;20.672;2023-09-19T06:22:32;15.32;;;8.93;;
38252;SDS011;24785;52.372;20.672;2023-09-19T06:32:33;18.52;;;9.73;;
38252;SDS011;24785;52.372;20.672;2023-09-19T06:42:34;13.30;;;9.05;;
38252;SDS011;24785;52.372;20.672;2023-09-19T06:52:37;18.55;;;9.88;;
38252;SDS011;24785;52.372;20.672;2023-09-19T07:02:38;19.90;;;10.85;;
38252;SDS011;24785;52.372;20.672;2023-09-19T07:12:39;19.08;;;10.55;;
38252;SDS011;24785;52.372;20.672;2023-09-19T07:22:41;21.13;;;11.65;;
38252;SDS011;24785;52.372;20.672;2023-09-19T07:32:43;16.47;;;9.40;;
38252;SDS011;24785;52.372;20.672;2023-09-19T07:42:43;17.13;;;9.57;;
38252;SDS011;24785;52.372;20.672;2023-09-19T07:52:47;20.27;;;10.07;;
38252;SDS011;24785;52.372;20.672;2023-09-19T08:02:51;21.05;;;10.55;;
38252;SDS011;24785;52.372;20.672;2023-09-19T08:12:54;19.30;;;10.88;;
38252;SDS011;24785;52.372;20.672;2023-09-19T08:22:58;21.92;;;12.35;;
38252;SDS011;24785;52.372;20.672;2023-09-19T08:32:59;22.85;;;12.63;;
38252;SDS011;24785;52.372;20.672;2023-09-19T08:43:01;33.70;;;13.10;;
38252;SDS011;24785;52.372;20.672;2023-09-19T08:53:01;26.55;;;13.55;;
38252;SDS011;24785;52.372;20.672;2023-09-19T09:03:11;22.35;;;10.35;;
38252;SDS011;24785;52.372;20.672;2023-09-19T09:13:14;23.40;;;11.50;;
38252;SDS011;24785;52.372;20.672;2023-09-19T09:23:16;18.85;;;10.73;;
38252;SDS011;24785;52.372;20.672;2023-09-19T09:33:17;18.17;;;9.98;;
38252;SDS011;24785;52.372;20.672;2023-09-19T09:43:28;17.27;;;10.27;;
38252;SDS011;24785;52.372;20.672;2023-09-19T09:53:35;14.05;;;8.15;;
38252;SDS011;24785;52.372;20.672;2023-09-19T10:03:38;12.55;;;7.57;;
38252;SDS011;24785;52.372;20.672;2023-09-19T10:13:40;12.60;;;7.22;;
38252;SDS011;24785;52.372;20.672;2023-09-19T10:33:45;8.98;;;5.53;;
38252;SDS011;24785;52.372;20.672;2023-09-19T10:43:49;11.35;;;5.90;;
38252;SDS011;24785;52.372;20.672;2023-09-19T10:53:58;9.07;;;5.25;;
38252;SDS011;24785;52.372;20.672;2023-09-19T11:04:21;10.45;;;6.07;;
38252;SDS011;24785;52.372;20.672;2023-09-19T11:24:27;10.90;;;5.60;;
38252;SDS011;24785;52.372;20.672;2023-09-19T11:34:38;14.90;;;6.07;;
38252;SDS011;24785;52.372;20.672;2023-09-19T11:44:46;7.95;;;5.40;;
38252;SDS011;24785;52.372;20.672;2023-09-19T11:54:56;11.13;;;5.40;;
38252;SDS011;24785;52.372;20.672;2023-09-19T12:05:00;8.18;;;5.82;;
38252;SDS011;24785;52.372;20.672;2023-09-19T12:15:01;14.40;;;6.28;;
38252;SDS011;24785;52.372;20.672;2023-09-19T12:25:06;10.02;;;5.68;;
38252;SDS011;24785;52.372;20.672;2023-09-19T12:35:08;9.88;;;5.57;;
38252;SDS011;24785;52.372;20.672;2023-09-19T12:45:11;9.20;;;5.50;;
38252;SDS011;24785;52.372;20.672;2023-09-19T12:55:22;8.07;;;5.50;;
38252;SDS011;24785;52.372;20.672;2023-09-19T13:05:53;8.52;;;5.00;;
38252;SDS011;24785;52.372;20.672;2023-09-19T13:16:04;11.30;;;4.77;;
38252;SDS011;24785;52.372;20.672;2023-09-19T13:26:10;6.65;;;4.65;;
38252;SDS011;24785;52.372;20.672;2023-09-19T13:36:11;12.03;;;4.60;;
38252;SDS011;24785;52.372;20.672;2023-09-19T13:46:13;7.63;;;4.60;;
38252;SDS011;24785;52.372;20.672;2023-09-19T13:56:16;6.35;;;3.70;;
38252;SDS011;24785;52.372;20.672;2023-09-19T14:06:17;6.07;;;4.00;;
38252;SDS011;24785;52.372;20.672;2023-09-19T14:16:18;7.88;;;3.63;;
38252;SDS011;24785;52.372;20.672;2023-09-19T14:26:19;7.32;;;3.53;;
38252;SDS011;24785;52.372;20.672;2023-09-19T14:36:20;5.82;;;3.30;;
38252;SDS011;24785;52.372;20.672;2023-09-19T14:46:22;4.90;;;3.25;;
38252;SDS011;24785;52.372;20.672;2023-09-19T14:56:26;6.38;;;3.08;;
38252;SDS011;24785;52.372;20.672;2023-09-19T15:06:28;7.53;;;3.40;;
38252;SDS011;24785;52.372;20.672;2023-09-19T15:16:29;11.00;;;7.07;;
38252;SDS011;24785;52.372;20.672;2023-09-19T15:26:30;4.60;;;2.90;;
38252;SDS011;24785;52.372;20.672;2023-09-19T15:36:31;5.03;;;2.67;;
38252;SDS011;24785;52.372;20.672;2023-09-19T15:46:32;4.90;;;2.88;;
38252;SDS011;24785;52.372;20.672;2023-09-19T15:56:36;4.78;;;2.90;;
38252;SDS011;24785;52.372;20.672;2023-09-19T16:06:37;5.67;;;3.00;;
38252;SDS011;24785;52.372;20.672;2023-09-19T16:16:38;10.27;;;3.37;;
38252;SDS011;24785;52.372;20.672;2023-09-19T16:26:39;6.20;;;2.70;;
38252;SDS011;24785;52.372;20.672;2023-09-19T16:36:40;5.82;;;3.20;;
38252;SDS011;24785;52.372;20.672;2023-09-19T16:46:41;5.15;;;3.00;;
38252;SDS011;24785;52.372;20.672;2023-09-19T16:56:43;5.65;;;2.92;;
38252;SDS011;24785;52.372;20.672;2023-09-19T17:06:44;9.57;;;3.80;;
38252;SDS011;24785;52.372;20.672;2023-09-19T17:16:47;10.98;;;4.50;;
38252;SDS011;24785;52.372;20.672;2023-09-19T17:26:49;14.82;;;5.70;;
38252;SDS011;24785;52.372;20.672;2023-09-19T17:36:50;11.15;;;4.38;;
38252;SDS011;24785;52.372;20.672;2023-09-19T17:46:51;5.63;;;3.22;;
38252;SDS011;24785;52.372;20.672;2023-09-19T17:56:52;13.13;;;4.97;;
38252;SDS011;24785;52.372;20.672;2023-09-19T18:06:55;20.52;;;8.00;;
38252;SDS011;24785;52.372;20.672;2023-09-19T18:16:55;24.77;;;11.63;;
38252;SDS011;24785;52.372;20.672;2023-09-19T18:26:58;16.10;;;6.72;;
38252;SDS011;24785;52.372;20.672;2023-09-19T18:37:00;8.80;;;4.53;;
38252;SDS011;24785;52.372;20.672;2023-09-19T18:47:01;12.60;;;4.85;;
38252;SDS011;24785;52.372;20.672;2023-09-19T18:57:03;15.35;;;6.40;;
38252;SDS011;24785;52.372;20.672;2023-09-19T19:07:07;7.75;;;3.85;;
38252;SDS011;24785;52.372;20.672;2023-09-19T19:17:12;6.07;;;3.47;;
38252;SDS011;24785;52.372;20.672;2023-09-19T19:27:13;9.57;;;3.37;;
38252;SDS011;24785;52.372;20.672;2023-09-19T19:37:14;7.30;;;2.75;;
38252;SDS011;24785;52.372;20.672;2023-09-19T19:47:15;5.15;;;2.75;;
38252;SDS011;24785;52.372;20.672;2023-09-19T19:57:16;5.50;;;2.55;;
38252;SDS011;24785;52.372;20.672;2023-09-19T20:07:19;5.32;;;1.92;;
38252;SDS011;24785;52.372;20.672;2023-09-19T20:17:20;3.92;;;1.60;;
38252;SDS011;24785;52.372;20.672;2023-09-19T20:27:24;2.90;;;1.77;;
38252;SDS011;24785;52.372;20.672;2023-09-19T20:37:25;2.55;;;1.20;;
38252;SDS011;24785;52.372;20.672;2023-09-19T20:47:26;3.95;;;1.70;;
38252;SDS011;24785;52.372;20.672;2023-09-19T20:57:27;3.45;;;1.83;;
38252;SDS011;24785;52.372;20.672;2023-09-19T21:07:28;5.15;;;1.70;;
38252;SDS011;24785;52.372;20.672;2023-09-19T21:17:29;3.00;;;1.90;;
38252;SDS011;24785;52.372;20.672;2023-09-19T21:27:30;4.25;;;2.28;;
38252;SDS011;24785;52.372;20.672;2023-09-19T21:37:31;5.35;;;2.10;;
38252;SDS011;24785;52.372;20.672;2023-09-19T21:47:32;5.72;;;2.40;;
38252;SDS011;24785;52.372;20.672;2023-09-19T21:57:33;4.45;;;2.10;;
38252;SDS011;24785;52.372;20.672;2023-09-19T22:07:34;6.03;;;3.33;;
38252;SDS011;24785;52.372;20.672;2023-09-19T22:17:35;7.10;;;1.83;;
38252;SDS011;24785;52.372;20.672;2023-09-19T22:27:36;6.85;;;2.72;;
38252;SDS011;24785;52.372;20.672;2023-09-19T22:37:39;3.58;;;2.20;;
38252;SDS011;24785;52.372;20.672;2023-09-19T22:47:40;5.45;;;1.90;;
38252;SDS011;24785;52.372;20.672;2023-09-19T22:57:40;4.03;;;1.42;;
38252;SDS011;24785;52.372;20.672;2023-09-19T23:07:41;6.22;;;2.40;;
38252;SDS011;24785;52.372;20.672;2023-09-19T23:17:48;7.85;;;2.92;;
38252;SDS011;24785;52.372;20.672;2023-09-19T23:27:49;6.22;;;3.55;;
38252;SDS011;24785;52.372;20.672;2023-09-19T23:37:51;5.40;;;3.37;;
38252;SDS011;24785;52.372;20.672;2023-09-19T23:47:52;7.03;;;3.40;;
38252;SDS011;24785;52.372;20.672;2023-09-19T23:57:53;4.93;;;2.57;;
